Accueil
METAR-TAF:

METAR-TAF

Aéroports :

Auckland, Nouvelle-Zélande

Aéroport d'Auckland

latitude: 37-01S, longitude: 174-48E, altitude: 7 m

Observation

Le bulletin a été fait il y a 18 minutes, à 13:30 UTC
Vent 3 kt de nord-ouest
Température 9°C
Humidité 87%
Pression 1011 hPa
Visibilité 10 km ou plus

METAR: NZAA 211330Z AUTO 31003KT 9999 NCD 09/07 Q1011 NOSIG

Heure: 01:48 (13:48 UTC)

Prévision

Le bulletin a été fait il y a 2 heures et 22 minutes, à 11:26 UTC
Prévision valable du 21 à 12 UTC au 22 à 12 UTC
Vent 5 kt de sud
Visibilité 10 km ou plus
Quelques nuages à une hauteur de 4000 ft
Evoluant progressivement
du 21 à 23 UTC au 22 à 01 UTC
Vent 12 kt de ouest/sud-ouest
Evoluant progressivement
du 22 à 09 UTC au 22 à 11 UTC
Vent 5 kt de sud/sud-est

TAF: NZAA 211126Z 2112/2212 18005KT 9999 FEW040 BECMG 2123/2201 24012KT BECMG 2209/2211 16005KT

Observations et prévisions météorologiques de plus de 4000 aéroports (messages METAR et TAF).

Les stations disponibles sont représentées par des disques jaunes et rouges sur la carte.

Passer la souris dessus pour voir le nom de la station.

Cliquer dessus pour voir les observations et prévisions météorologiques.

Pour changer de carte: cliquez sur les boutons verts avec une croix noire pour zoomer, sur le bouton vert avec un tiret pour effectuer un zoom arrière, ou sur les flèches vertes pour les cartes adjacentes.


METAR-TAF: